sensor_id;sensor_type;location;lat;lon;timestamp;P1;durP1;ratioP1;P2;durP2;ratioP2
54384;SDS011;40284;52.878;5.998;2022-10-16T00:01:06;7.30;;;2.28;;
54384;SDS011;40284;52.878;5.998;2022-10-16T00:03:32;7.22;;;2.45;;
54384;SDS011;40284;52.878;5.998;2022-10-16T00:05:59;5.05;;;2.58;;
54384;SDS011;40284;52.878;5.998;2022-10-16T00:08:25;7.68;;;3.08;;
54384;SDS011;40284;52.878;5.998;2022-10-16T00:10:51;10.05;;;2.13;;
54384;SDS011;40284;52.878;5.998;2022-10-16T00:13:17;9.43;;;2.28;;
54384;SDS011;40284;52.878;5.998;2022-10-16T00:15:45;7.03;;;2.10;;
54384;SDS011;40284;52.878;5.998;2022-10-16T00:18:11;14.13;;;2.63;;
54384;SDS011;40284;52.878;5.998;2022-10-16T00:20:39;4.38;;;1.70;;
54384;SDS011;40284;52.878;5.998;2022-10-16T00:23:05;8.48;;;2.20;;
54384;SDS011;40284;52.878;5.998;2022-10-16T00:25:31;7.30;;;3.22;;
54384;SDS011;40284;52.878;5.998;2022-10-16T00:27:59;6.88;;;2.25;;
54384;SDS011;40284;52.878;5.998;2022-10-16T00:30:25;5.03;;;1.80;;
54384;SDS011;40284;52.878;5.998;2022-10-16T00:32:52;7.18;;;2.03;;
54384;SDS011;40284;52.878;5.998;2022-10-16T00:35:18;4.95;;;1.80;;
54384;SDS011;40284;52.878;5.998;2022-10-16T00:37:44;5.82;;;1.75;;
54384;SDS011;40284;52.878;5.998;2022-10-16T00:40:11;6.78;;;2.33;;
54384;SDS011;40284;52.878;5.998;2022-10-16T00:42:37;7.03;;;2.58;;
54384;SDS011;40284;52.878;5.998;2022-10-16T00:45:03;8.98;;;2.17;;
54384;SDS011;40284;52.878;5.998;2022-10-16T00:47:30;7.45;;;1.77;;
54384;SDS011;40284;52.878;5.998;2022-10-16T00:50:02;7.80;;;2.05;;
54384;SDS011;40284;52.878;5.998;2022-10-16T00:52:34;6.88;;;2.40;;
54384;SDS011;40284;52.878;5.998;2022-10-16T00:55:02;3.72;;;1.60;;
54384;SDS011;40284;52.878;5.998;2022-10-16T00:57:29;4.45;;;1.80;;
54384;SDS011;40284;52.878;5.998;2022-10-16T00:59:55;6.43;;;2.33;;
54384;SDS011;40284;52.878;5.998;2022-10-16T01:02:21;5.55;;;1.70;;
54384;SDS011;40284;52.878;5.998;2022-10-16T01:04:48;3.83;;;1.63;;
54384;SDS011;40284;52.878;5.998;2022-10-16T01:14:57;6.22;;;2.13;;
54384;SDS011;40284;52.878;5.998;2022-10-16T01:17:28;9.53;;;1.90;;
54384;SDS011;40284;52.878;5.998;2022-10-16T01:20:06;9.10;;;2.15;;
54384;SDS011;40284;52.878;5.998;2022-10-16T01:25:25;13.55;;;2.55;;
54384;SDS011;40284;52.878;5.998;2022-10-16T01:27:53;6.38;;;2.28;;
54384;SDS011;40284;52.878;5.998;2022-10-16T01:30:29;7.20;;;2.10;;
54384;SDS011;40284;52.878;5.998;2022-10-16T01:33:01;5.60;;;2.20;;
54384;SDS011;40284;52.878;5.998;2022-10-16T01:35:38;7.38;;;1.75;;
54384;SDS011;40284;52.878;5.998;2022-10-16T01:38:12;7.13;;;2.00;;
54384;SDS011;40284;52.878;5.998;2022-10-16T01:40:41;7.97;;;1.90;;
54384;SDS011;40284;52.878;5.998;2022-10-16T01:43:12;6.60;;;2.03;;
54384;SDS011;40284;52.878;5.998;2022-10-16T01:45:39;6.63;;;1.65;;
54384;SDS011;40284;52.878;5.998;2022-10-16T01:48:07;7.05;;;2.45;;
54384;SDS011;40284;52.878;5.998;2022-10-16T01:50:35;5.72;;;1.73;;
54384;SDS011;40284;52.878;5.998;2022-10-16T01:53:03;8.80;;;2.75;;
54384;SDS011;40284;52.878;5.998;2022-10-16T01:55:32;8.27;;;2.17;;
54384;SDS011;40284;52.878;5.998;2022-10-16T01:57:59;6.65;;;1.98;;
54384;SDS011;40284;52.878;5.998;2022-10-16T02:00:27;9.00;;;2.60;;
54384;SDS011;40284;52.878;5.998;2022-10-16T02:02:54;15.10;;;2.42;;
54384;SDS011;40284;52.878;5.998;2022-10-16T02:05:23;7.07;;;2.45;;
54384;SDS011;40284;52.878;5.998;2022-10-16T02:07:51;8.32;;;2.47;;
54384;SDS011;40284;52.878;5.998;2022-10-16T02:10:17;5.47;;;1.77;;
54384;SDS011;40284;52.878;5.998;2022-10-16T02:12:51;7.35;;;2.08;;
54384;SDS011;40284;52.878;5.998;2022-10-16T02:15:20;7.93;;;2.92;;
54384;SDS011;40284;52.878;5.998;2022-10-16T02:17:46;8.43;;;2.75;;
54384;SDS011;40284;52.878;5.998;2022-10-16T02:20:12;4.38;;;1.73;;
54384;SDS011;40284;52.878;5.998;2022-10-16T02:22:39;4.30;;;2.13;;
54384;SDS011;40284;52.878;5.998;2022-10-16T02:25:10;6.88;;;2.78;;
54384;SDS011;40284;52.878;5.998;2022-10-16T02:30:14;7.82;;;2.35;;
54384;SDS011;40284;52.878;5.998;2022-10-16T02:32:42;6.22;;;2.38;;
54384;SDS011;40284;52.878;5.998;2022-10-16T02:35:10;5.68;;;2.00;;
54384;SDS011;40284;52.878;5.998;2022-10-16T02:37:36;4.78;;;1.85;;
54384;SDS011;40284;52.878;5.998;2022-10-16T02:40:03;4.80;;;2.10;;
54384;SDS011;40284;52.878;5.998;2022-10-16T02:42:36;5.28;;;1.70;;
54384;SDS011;40284;52.878;5.998;2022-10-16T02:45:03;4.45;;;2.05;;
54384;SDS011;40284;52.878;5.998;2022-10-16T02:47:30;5.53;;;2.22;;
54384;SDS011;40284;52.878;5.998;2022-10-16T02:49:56;9.65;;;2.67;;
54384;SDS011;40284;52.878;5.998;2022-10-16T02:52:22;4.32;;;1.77;;
54384;SDS011;40284;52.878;5.998;2022-10-16T02:54:48;5.93;;;2.00;;
54384;SDS011;40284;52.878;5.998;2022-10-16T02:57:14;6.68;;;2.35;;
54384;SDS011;40284;52.878;5.998;2022-10-16T02:59:40;8.52;;;2.30;;
54384;SDS011;40284;52.878;5.998;2022-10-16T03:02:06;4.93;;;1.90;;
54384;SDS011;40284;52.878;5.998;2022-10-16T03:04:32;4.82;;;2.08;;
54384;SDS011;40284;52.878;5.998;2022-10-16T03:06:58;4.80;;;1.85;;
54384;SDS011;40284;52.878;5.998;2022-10-16T03:09:24;7.20;;;2.20;;
54384;SDS011;40284;52.878;5.998;2022-10-16T03:11:50;5.22;;;2.08;;
54384;SDS011;40284;52.878;5.998;2022-10-16T03:14:17;7.45;;;1.77;;
54384;SDS011;40284;52.878;5.998;2022-10-16T03:16:43;4.88;;;1.83;;
54384;SDS011;40284;52.878;5.998;2022-10-16T03:19:09;5.25;;;2.13;;
54384;SDS011;40284;52.878;5.998;2022-10-16T03:21:35;5.70;;;2.30;;
54384;SDS011;40284;52.878;5.998;2022-10-16T03:24:01;3.95;;;1.90;;
54384;SDS011;40284;52.878;5.998;2022-10-16T03:26:27;7.53;;;2.00;;
54384;SDS011;40284;52.878;5.998;2022-10-16T03:28:53;5.60;;;2.05;;
54384;SDS011;40284;52.878;5.998;2022-10-16T03:31:19;4.32;;;2.38;;
54384;SDS011;40284;52.878;5.998;2022-10-16T03:33:45;6.40;;;2.20;;
54384;SDS011;40284;52.878;5.998;2022-10-16T03:36:11;5.90;;;2.08;;
54384;SDS011;40284;52.878;5.998;2022-10-16T03:38:37;5.25;;;2.00;;
54384;SDS011;40284;52.878;5.998;2022-10-16T03:41:03;4.43;;;2.75;;
54384;SDS011;40284;52.878;5.998;2022-10-16T03:43:29;5.80;;;2.00;;
54384;SDS011;40284;52.878;5.998;2022-10-16T03:45:56;7.20;;;2.13;;
54384;SDS011;40284;52.878;5.998;2022-10-16T03:48:22;4.00;;;1.90;;
54384;SDS011;40284;52.878;5.998;2022-10-16T03:50:48;10.32;;;2.58;;
54384;SDS011;40284;52.878;5.998;2022-10-16T03:53:15;3.53;;;2.20;;
54384;SDS011;40284;52.878;5.998;2022-10-16T03:55:42;5.38;;;2.20;;
54384;SDS011;40284;52.878;5.998;2022-10-16T03:58:08;4.03;;;2.40;;
54384;SDS011;40284;52.878;5.998;2022-10-16T04:00:34;4.15;;;2.00;;
54384;SDS011;40284;52.878;5.998;2022-10-16T04:03:00;5.88;;;2.20;;
54384;SDS011;40284;52.878;5.998;2022-10-16T04:05:26;4.95;;;2.40;;
54384;SDS011;40284;52.878;5.998;2022-10-16T04:07:52;4.72;;;2.00;;
54384;SDS011;40284;52.878;5.998;2022-10-16T04:10:20;6.07;;;2.67;;
54384;SDS011;40284;52.878;5.998;2022-10-16T04:12:46;4.47;;;2.78;;
54384;SDS011;40284;52.878;5.998;2022-10-16T04:15:12;5.82;;;2.50;;
54384;SDS011;40284;52.878;5.998;2022-10-16T04:17:38;6.82;;;2.40;;
54384;SDS011;40284;52.878;5.998;2022-10-16T04:20:04;7.80;;;2.83;;
54384;SDS011;40284;52.878;5.998;2022-10-16T04:22:30;5.40;;;2.67;;
54384;SDS011;40284;52.878;5.998;2022-10-16T04:24:56;5.15;;;2.55;;
54384;SDS011;40284;52.878;5.998;2022-10-16T04:27:22;7.30;;;2.63;;
54384;SDS011;40284;52.878;5.998;2022-10-16T04:29:49;6.13;;;2.53;;
54384;SDS011;40284;52.878;5.998;2022-10-16T04:32:15;6.22;;;2.95;;
54384;SDS011;40284;52.878;5.998;2022-10-16T04:34:41;5.57;;;2.88;;
54384;SDS011;40284;52.878;5.998;2022-10-16T04:37:07;7.57;;;2.90;;
54384;SDS011;40284;52.878;5.998;2022-10-16T04:39:33;8.57;;;2.55;;
54384;SDS011;40284;52.878;5.998;2022-10-16T04:41:59;7.50;;;2.33;;
54384;SDS011;40284;52.878;5.998;2022-10-16T04:44:25;4.30;;;2.55;;
54384;SDS011;40284;52.878;5.998;2022-10-16T04:46:51;5.05;;;2.85;;
54384;SDS011;40284;52.878;5.998;2022-10-16T04:49:17;4.55;;;2.80;;
54384;SDS011;40284;52.878;5.998;2022-10-16T04:51:44;5.03;;;2.35;;
54384;SDS011;40284;52.878;5.998;2022-10-16T04:54:10;9.43;;;3.33;;
54384;SDS011;40284;52.878;5.998;2022-10-16T04:56:36;8.07;;;3.35;;
54384;SDS011;40284;52.878;5.998;2022-10-16T04:59:08;6.20;;;3.15;;
54384;SDS011;40284;52.878;5.998;2022-10-16T05:01:34;5.95;;;2.92;;
54384;SDS011;40284;52.878;5.998;2022-10-16T05:04:00;4.75;;;3.15;;
54384;SDS011;40284;52.878;5.998;2022-10-16T05:06:26;10.23;;;3.63;;
54384;SDS011;40284;52.878;5.998;2022-10-16T05:08:52;5.25;;;2.80;;
54384;SDS011;40284;52.878;5.998;2022-10-16T05:11:19;4.75;;;2.90;;
54384;SDS011;40284;52.878;5.998;2022-10-16T05:13:45;3.78;;;2.85;;
54384;SDS011;40284;52.878;5.998;2022-10-16T05:16:11;5.15;;;3.15;;
54384;SDS011;40284;52.878;5.998;2022-10-16T05:18:37;4.50;;;2.60;;
54384;SDS011;40284;52.878;5.998;2022-10-16T05:21:03;8.25;;;2.90;;
54384;SDS011;40284;52.878;5.998;2022-10-16T05:23:29;7.00;;;3.10;;
54384;SDS011;40284;52.878;5.998;2022-10-16T05:25:55;6.70;;;3.03;;
54384;SDS011;40284;52.878;5.998;2022-10-16T05:28:23;9.50;;;3.05;;
54384;SDS011;40284;52.878;5.998;2022-10-16T05:30:50;9.50;;;3.35;;
54384;SDS011;40284;52.878;5.998;2022-10-16T05:33:16;7.60;;;2.95;;
54384;SDS011;40284;52.878;5.998;2022-10-16T05:35:42;7.60;;;3.67;;
54384;SDS011;40284;52.878;5.998;2022-10-16T05:38:09;7.15;;;4.40;;
54384;SDS011;40284;52.878;5.998;2022-10-16T05:40:35;7.03;;;4.15;;
54384;SDS011;40284;52.878;5.998;2022-10-16T05:43:01;4.80;;;3.08;;
54384;SDS011;40284;52.878;5.998;2022-10-16T05:45:27;10.18;;;2.97;;
54384;SDS011;40284;52.878;5.998;2022-10-16T05:47:53;5.53;;;3.15;;
54384;SDS011;40284;52.878;5.998;2022-10-16T05:50:19;9.57;;;3.38;;
54384;SDS011;40284;52.878;5.998;2022-10-16T05:52:45;8.25;;;3.55;;
54384;SDS011;40284;52.878;5.998;2022-10-16T05:55:11;7.45;;;3.15;;
54384;SDS011;40284;52.878;5.998;2022-10-16T05:57:37;6.45;;;3.63;;
54384;SDS011;40284;52.878;5.998;2022-10-16T06:00:03;13.30;;;3.15;;
54384;SDS011;40284;52.878;5.998;2022-10-16T06:02:30;6.03;;;3.30;;
54384;SDS011;40284;52.878;5.998;2022-10-16T06:04:56;8.25;;;3.63;;
54384;SDS011;40284;52.878;5.998;2022-10-16T06:07:22;6.10;;;3.17;;
54384;SDS011;40284;52.878;5.998;2022-10-16T06:09:51;5.82;;;3.03;;
54384;SDS011;40284;52.878;5.998;2022-10-16T06:12:17;5.30;;;2.58;;
54384;SDS011;40284;52.878;5.998;2022-10-16T06:14:44;7.63;;;3.15;;
54384;SDS011;40284;52.878;5.998;2022-10-16T06:17:12;6.72;;;3.05;;
54384;SDS011;40284;52.878;5.998;2022-10-16T06:19:38;6.60;;;3.05;;
54384;SDS011;40284;52.878;5.998;2022-10-16T06:22:04;5.90;;;3.28;;
54384;SDS011;40284;52.878;5.998;2022-10-16T06:24:30;4.75;;;3.20;;
54384;SDS011;40284;52.878;5.998;2022-10-16T06:26:56;7.22;;;3.03;;
54384;SDS011;40284;52.878;5.998;2022-10-16T06:29:22;5.93;;;2.67;;
54384;SDS011;40284;52.878;5.998;2022-10-16T06:31:48;4.78;;;2.80;;
54384;SDS011;40284;52.878;5.998;2022-10-16T06:34:14;10.60;;;3.08;;
54384;SDS011;40284;52.878;5.998;2022-10-16T06:36:40;8.63;;;2.90;;
54384;SDS011;40284;52.878;5.998;2022-10-16T06:39:08;4.35;;;2.40;;
54384;SDS011;40284;52.878;5.998;2022-10-16T06:41:34;7.72;;;2.97;;
54384;SDS011;40284;52.878;5.998;2022-10-16T06:44:01;4.53;;;2.38;;
54384;SDS011;40284;52.878;5.998;2022-10-16T06:46:27;7.20;;;2.65;;
54384;SDS011;40284;52.878;5.998;2022-10-16T06:48:53;5.80;;;2.67;;
54384;SDS011;40284;52.878;5.998;2022-10-16T06:51:21;3.50;;;2.38;;
54384;SDS011;40284;52.878;5.998;2022-10-16T06:53:48;5.57;;;2.40;;
54384;SDS011;40284;52.878;5.998;2022-10-16T06:56:19;7.00;;;2.70;;
54384;SDS011;40284;52.878;5.998;2022-10-16T06:58:45;6.35;;;2.50;;
54384;SDS011;40284;52.878;5.998;2022-10-16T07:01:12;4.55;;;2.67;;
54384;SDS011;40284;52.878;5.998;2022-10-16T07:03:39;7.25;;;2.90;;
54384;SDS011;40284;52.878;5.998;2022-10-16T07:06:06;8.75;;;2.75;;
54384;SDS011;40284;52.878;5.998;2022-10-16T07:08:34;6.13;;;3.08;;
54384;SDS011;40284;52.878;5.998;2022-10-16T07:11:07;6.32;;;2.47;;
54384;SDS011;40284;52.878;5.998;2022-10-16T07:13:33;6.43;;;2.65;;
54384;SDS011;40284;52.878;5.998;2022-10-16T07:18:32;6.68;;;2.70;;
54384;SDS011;40284;52.878;5.998;2022-10-16T07:21:04;6.82;;;2.75;;
54384;SDS011;40284;52.878;5.998;2022-10-16T07:23:30;5.00;;;2.45;;
54384;SDS011;40284;52.878;5.998;2022-10-16T07:25:57;3.50;;;2.28;;
54384;SDS011;40284;52.878;5.998;2022-10-16T07:28:23;6.75;;;2.55;;
54384;SDS011;40284;52.878;5.998;2022-10-16T07:30:49;4.72;;;2.40;;
54384;SDS011;40284;52.878;5.998;2022-10-16T07:33:15;7.22;;;3.20;;
54384;SDS011;40284;52.878;5.998;2022-10-16T07:35:48;5.78;;;2.63;;
54384;SDS011;40284;52.878;5.998;2022-10-16T07:38:14;5.63;;;2.58;;
54384;SDS011;40284;52.878;5.998;2022-10-16T07:40:40;5.70;;;2.10;;
54384;SDS011;40284;52.878;5.998;2022-10-16T07:43:06;5.80;;;1.98;;
54384;SDS011;40284;52.878;5.998;2022-10-16T07:45:32;6.32;;;2.00;;
54384;SDS011;40284;52.878;5.998;2022-10-16T07:47:58;5.75;;;1.85;;
54384;SDS011;40284;52.878;5.998;2022-10-16T07:50:24;3.92;;;1.70;;
54384;SDS011;40284;52.878;5.998;2022-10-16T07:52:51;6.90;;;1.70;;
54384;SDS011;40284;52.878;5.998;2022-10-16T07:55:17;7.80;;;2.05;;
54384;SDS011;40284;52.878;5.998;2022-10-16T07:57:43;3.72;;;1.35;;
54384;SDS011;40284;52.878;5.998;2022-10-16T08:00:09;5.95;;;2.13;;
54384;SDS011;40284;52.878;5.998;2022-10-16T08:02:39;4.72;;;1.65;;
54384;SDS011;40284;52.878;5.998;2022-10-16T08:05:05;4.50;;;1.92;;
54384;SDS011;40284;52.878;5.998;2022-10-16T08:07:31;6.78;;;1.50;;
54384;SDS011;40284;52.878;5.998;2022-10-16T08:09:57;5.55;;;1.70;;
54384;SDS011;40284;52.878;5.998;2022-10-16T08:12:24;3.97;;;1.65;;
54384;SDS011;40284;52.878;5.998;2022-10-16T08:14:50;5.93;;;1.67;;
54384;SDS011;40284;52.878;5.998;2022-10-16T08:17:16;4.25;;;1.70;;
54384;SDS011;40284;52.878;5.998;2022-10-16T08:19:45;5.80;;;1.60;;
54384;SDS011;40284;52.878;5.998;2022-10-16T08:22:12;5.68;;;1.60;;
54384;SDS011;40284;52.878;5.998;2022-10-16T08:24:38;3.47;;;1.80;;
54384;SDS011;40284;52.878;5.998;2022-10-16T08:27:04;7.20;;;1.98;;
54384;SDS011;40284;52.878;5.998;2022-10-16T08:29:31;5.78;;;2.35;;
54384;SDS011;40284;52.878;5.998;2022-10-16T08:31:57;10.20;;;2.30;;
54384;SDS011;40284;52.878;5.998;2022-10-16T08:34:23;6.35;;;2.45;;
54384;SDS011;40284;52.878;5.998;2022-10-16T08:36:52;6.55;;;1.92;;
54384;SDS011;40284;52.878;5.998;2022-10-16T08:39:19;5.35;;;1.88;;
54384;SDS011;40284;52.878;5.998;2022-10-16T08:47:22;6.88;;;2.45;;
54384;SDS011;40284;52.878;5.998;2022-10-16T08:50:31;11.00;;;2.75;;
54384;SDS011;40284;52.878;5.998;2022-10-16T08:52:41;5.15;;;1.95;;
54384;SDS011;40284;52.878;5.998;2022-10-16T08:57:53;7.18;;;2.00;;
54384;SDS011;40284;52.878;5.998;2022-10-16T09:00:19;6.80;;;2.40;;
54384;SDS011;40284;52.878;5.998;2022-10-16T09:02:52;6.82;;;2.25;;
54384;SDS011;40284;52.878;5.998;2022-10-16T09:15:47;8.05;;;2.13;;
54384;SDS011;40284;52.878;5.998;2022-10-16T09:18:16;7.40;;;1.92;;
54384;SDS011;40284;52.878;5.998;2022-10-16T09:21:05;9.52;;;2.85;;
54384;SDS011;40284;52.878;5.998;2022-10-16T09:23:36;9.65;;;2.17;;
54384;SDS011;40284;52.878;5.998;2022-10-16T09:26:03;10.48;;;2.53;;
54384;SDS011;40284;52.878;5.998;2022-10-16T09:28:30;10.27;;;2.10;;
54384;SDS011;40284;52.878;5.998;2022-10-16T09:30:56;8.68;;;2.63;;
54384;SDS011;40284;52.878;5.998;2022-10-16T09:33:24;11.80;;;2.50;;
54384;SDS011;40284;52.878;5.998;2022-10-16T09:35:52;11.77;;;2.03;;
54384;SDS011;40284;52.878;5.998;2022-10-16T09:38:26;10.93;;;2.10;;
54384;SDS011;40284;52.878;5.998;2022-10-16T09:40:54;11.40;;;3.00;;
54384;SDS011;40284;52.878;5.998;2022-10-16T09:43:25;7.53;;;1.98;;
54384;SDS011;40284;52.878;5.998;2022-10-16T09:48:30;9.80;;;2.35;;
54384;SDS011;40284;52.878;5.998;2022-10-16T09:50:58;10.60;;;2.65;;
54384;SDS011;40284;52.878;5.998;2022-10-16T09:53:25;13.13;;;2.40;;
54384;SDS011;40284;52.878;5.998;2022-10-16T09:55:53;14.75;;;2.25;;
54384;SDS011;40284;52.878;5.998;2022-10-16T09:58:22;11.60;;;2.40;;
54384;SDS011;40284;52.878;5.998;2022-10-16T10:00:53;13.57;;;3.25;;
54384;SDS011;40284;52.878;5.998;2022-10-16T10:06:44;11.95;;;2.10;;
54384;SDS011;40284;52.878;5.998;2022-10-16T10:16:39;9.95;;;2.50;;
54384;SDS011;40284;52.878;5.998;2022-10-16T10:19:09;14.38;;;2.17;;
54384;SDS011;40284;52.878;5.998;2022-10-16T10:21:39;10.88;;;2.25;;
54384;SDS011;40284;52.878;5.998;2022-10-16T10:24:09;11.90;;;2.40;;
54384;SDS011;40284;52.878;5.998;2022-10-16T10:26:35;9.48;;;2.40;;
54384;SDS011;40284;52.878;5.998;2022-10-16T10:31:36;11.38;;;2.90;;
54384;SDS011;40284;52.878;5.998;2022-10-16T10:34:23;8.27;;;2.55;;
54384;SDS011;40284;52.878;5.998;2022-10-16T10:36:56;13.52;;;2.42;;
54384;SDS011;40284;52.878;5.998;2022-10-16T10:39:30;10.48;;;2.55;;
54384;SDS011;40284;52.878;5.998;2022-10-16T10:42:05;10.55;;;2.72;;
54384;SDS011;40284;52.878;5.998;2022-10-16T10:44:40;11.85;;;2.38;;
54384;SDS011;40284;52.878;5.998;2022-10-16T10:47:18;12.40;;;2.65;;
54384;SDS011;40284;52.878;5.998;2022-10-16T10:55:02;9.73;;;3.13;;
54384;SDS011;40284;52.878;5.998;2022-10-16T11:05:38;9.35;;;2.10;;
54384;SDS011;40284;52.878;5.998;2022-10-16T11:10:40;10.10;;;2.78;;
54384;SDS011;40284;52.878;5.998;2022-10-16T11:13:19;8.43;;;2.53;;
54384;SDS011;40284;52.878;5.998;2022-10-16T11:15:47;7.35;;;2.33;;
54384;SDS011;40284;52.878;5.998;2022-10-16T11:18:32;12.07;;;2.53;;
54384;SDS011;40284;52.878;5.998;2022-10-16T11:21:02;13.60;;;2.55;;
54384;SDS011;40284;52.878;5.998;2022-10-16T11:23:31;9.32;;;2.38;;
54384;SDS011;40284;52.878;5.998;2022-10-16T11:26:00;15.20;;;2.80;;
54384;SDS011;40284;52.878;5.998;2022-10-16T11:28:38;14.63;;;3.95;;
54384;SDS011;40284;52.878;5.998;2022-10-16T11:31:23;11.07;;;2.20;;
54384;SDS011;40284;52.878;5.998;2022-10-16T11:36:27;12.82;;;2.50;;
54384;SDS011;40284;52.878;5.998;2022-10-16T11:46:48;11.65;;;2.97;;
54384;SDS011;40284;52.878;5.998;2022-10-16T11:49:16;14.38;;;2.85;;
54384;SDS011;40284;52.878;5.998;2022-10-16T11:51:59;14.60;;;3.10;;
54384;SDS011;40284;52.878;5.998;2022-10-16T11:54:32;10.65;;;2.53;;
54384;SDS011;40284;52.878;5.998;2022-10-16T11:57:02;14.45;;;3.13;;
54384;SDS011;40284;52.878;5.998;2022-10-16T11:59:33;16.05;;;2.45;;
54384;SDS011;40284;52.878;5.998;2022-10-16T12:02:13;15.15;;;2.50;;
54384;SDS011;40284;52.878;5.998;2022-10-16T12:04:46;17.60;;;2.33;;
54384;SDS011;40284;52.878;5.998;2022-10-16T12:07:15;10.38;;;2.53;;
54384;SDS011;40284;52.878;5.998;2022-10-16T12:09:43;17.13;;;2.47;;
54384;SDS011;40284;52.878;5.998;2022-10-16T12:12:54;10.65;;;2.60;;
54384;SDS011;40284;52.878;5.998;2022-10-16T12:15:03;8.68;;;2.97;;
54384;SDS011;40284;52.878;5.998;2022-10-16T12:17:43;15.57;;;3.83;;
54384;SDS011;40284;52.878;5.998;2022-10-16T12:22:49;15.63;;;2.40;;
54384;SDS011;40284;52.878;5.998;2022-10-16T12:25:20;12.73;;;2.47;;
54384;SDS011;40284;52.878;5.998;2022-10-16T12:27:52;18.73;;;3.28;;
54384;SDS011;40284;52.878;5.998;2022-10-16T12:30:20;11.45;;;2.17;;
54384;SDS011;40284;52.878;5.998;2022-10-16T12:32:53;16.35;;;3.20;;
54384;SDS011;40284;52.878;5.998;2022-10-16T12:35:23;12.25;;;2.55;;
54384;SDS011;40284;52.878;5.998;2022-10-16T12:37:49;13.65;;;2.38;;
54384;SDS011;40284;52.878;5.998;2022-10-16T12:40:23;8.85;;;2.25;;
54384;SDS011;40284;52.878;5.998;2022-10-16T12:42:50;10.73;;;2.22;;
54384;SDS011;40284;52.878;5.998;2022-10-16T12:45:27;11.75;;;2.78;;
54384;SDS011;40284;52.878;5.998;2022-10-16T12:47:54;10.25;;;2.70;;
54384;SDS011;40284;52.878;5.998;2022-10-16T12:52:49;13.98;;;2.88;;
54384;SDS011;40284;52.878;5.998;2022-10-16T12:55:16;14.75;;;3.38;;
54384;SDS011;40284;52.878;5.998;2022-10-16T13:00:25;13.07;;;2.67;;
54384;SDS011;40284;52.878;5.998;2022-10-16T13:03:11;13.45;;;2.53;;
54384;SDS011;40284;52.878;5.998;2022-10-16T13:16:26;16.50;;;2.72;;
54384;SDS011;40284;52.878;5.998;2022-10-16T13:29:40;9.30;;;2.88;;
54384;SDS011;40284;52.878;5.998;2022-10-16T13:32:07;10.45;;;2.40;;
54384;SDS011;40284;52.878;5.998;2022-10-16T13:34:43;12.20;;;2.67;;
54384;SDS011;40284;52.878;5.998;2022-10-16T13:37:19;13.30;;;2.53;;
54384;SDS011;40284;52.878;5.998;2022-10-16T13:39:46;11.82;;;2.65;;
54384;SDS011;40284;52.878;5.998;2022-10-16T13:42:18;12.73;;;2.80;;
54384;SDS011;40284;52.878;5.998;2022-10-16T13:44:51;11.30;;;2.03;;
54384;SDS011;40284;52.878;5.998;2022-10-16T13:47:18;11.02;;;2.47;;
54384;SDS011;40284;52.878;5.998;2022-10-16T13:49:45;12.25;;;2.45;;
54384;SDS011;40284;52.878;5.998;2022-10-16T13:52:15;11.93;;;2.10;;
54384;SDS011;40284;52.878;5.998;2022-10-16T13:54:42;13.70;;;2.38;;
54384;SDS011;40284;52.878;5.998;2022-10-16T13:57:11;10.40;;;2.58;;
54384;SDS011;40284;52.878;5.998;2022-10-16T13:59:38;9.85;;;2.42;;
54384;SDS011;40284;52.878;5.998;2022-10-16T14:02:05;10.90;;;3.03;;
54384;SDS011;40284;52.878;5.998;2022-10-16T14:04:35;9.30;;;2.63;;
54384;SDS011;40284;52.878;5.998;2022-10-16T14:07:04;16.38;;;2.40;;
54384;SDS011;40284;52.878;5.998;2022-10-16T14:09:30;11.05;;;2.47;;
54384;SDS011;40284;52.878;5.998;2022-10-16T14:14:23;12.82;;;2.63;;
54384;SDS011;40284;52.878;5.998;2022-10-16T14:16:49;14.40;;;2.67;;
54384;SDS011;40284;52.878;5.998;2022-10-16T14:19:22;15.93;;;3.08;;
54384;SDS011;40284;52.878;5.998;2022-10-16T14:21:50;8.73;;;2.47;;
54384;SDS011;40284;52.878;5.998;2022-10-16T14:24:34;10.50;;;2.17;;
54384;SDS011;40284;52.878;5.998;2022-10-16T14:27:01;10.55;;;2.15;;
54384;SDS011;40284;52.878;5.998;2022-10-16T14:29:28;12.88;;;2.40;;
54384;SDS011;40284;52.878;5.998;2022-10-16T14:31:59;10.73;;;2.40;;
54384;SDS011;40284;52.878;5.998;2022-10-16T14:34:33;12.57;;;2.63;;
54384;SDS011;40284;52.878;5.998;2022-10-16T14:37:23;13.50;;;2.45;;
54384;SDS011;40284;52.878;5.998;2022-10-16T14:39:50;13.02;;;2.13;;
54384;SDS011;40284;52.878;5.998;2022-10-16T14:42:16;12.52;;;3.40;;
54384;SDS011;40284;52.878;5.998;2022-10-16T14:44:44;10.23;;;2.58;;
54384;SDS011;40284;52.878;5.998;2022-10-16T14:47:13;8.55;;;2.08;;
54384;SDS011;40284;52.878;5.998;2022-10-16T14:49:41;20.20;;;3.67;;
54384;SDS011;40284;52.878;5.998;2022-10-16T14:52:11;14.63;;;2.65;;
54384;SDS011;40284;52.878;5.998;2022-10-16T14:54:37;18.30;;;2.80;;
54384;SDS011;40284;52.878;5.998;2022-10-16T14:57:03;14.18;;;3.42;;
54384;SDS011;40284;52.878;5.998;2022-10-16T14:59:32;16.60;;;2.95;;
54384;SDS011;40284;52.878;5.998;2022-10-16T15:01:59;11.82;;;2.08;;
54384;SDS011;40284;52.878;5.998;2022-10-16T15:04:26;13.63;;;2.05;;
54384;SDS011;40284;52.878;5.998;2022-10-16T15:06:52;11.85;;;3.50;;
54384;SDS011;40284;52.878;5.998;2022-10-16T15:09:18;11.13;;;2.67;;
54384;SDS011;40284;52.878;5.998;2022-10-16T15:11:44;13.68;;;2.35;;
54384;SDS011;40284;52.878;5.998;2022-10-16T15:14:12;12.50;;;2.15;;
54384;SDS011;40284;52.878;5.998;2022-10-16T15:16:38;11.57;;;2.20;;
54384;SDS011;40284;52.878;5.998;2022-10-16T15:19:04;19.42;;;3.03;;
54384;SDS011;40284;52.878;5.998;2022-10-16T15:21:31;8.70;;;2.08;;
54384;SDS011;40284;52.878;5.998;2022-10-16T15:23:58;14.25;;;2.63;;
54384;SDS011;40284;52.878;5.998;2022-10-16T15:26:28;14.73;;;2.95;;
54384;SDS011;40284;52.878;5.998;2022-10-16T15:28:55;15.95;;;3.10;;
54384;SDS011;40284;52.878;5.998;2022-10-16T15:31:21;12.93;;;3.13;;
54384;SDS011;40284;52.878;5.998;2022-10-16T15:33:49;13.25;;;3.53;;
54384;SDS011;40284;52.878;5.998;2022-10-16T15:36:25;12.98;;;3.63;;
54384;SDS011;40284;52.878;5.998;2022-10-16T15:38:51;13.82;;;2.75;;
54384;SDS011;40284;52.878;5.998;2022-10-16T15:41:18;15.90;;;3.40;;
54384;SDS011;40284;52.878;5.998;2022-10-16T15:43:45;17.13;;;4.85;;
54384;SDS011;40284;52.878;5.998;2022-10-16T15:46:13;16.77;;;3.53;;
54384;SDS011;40284;52.878;5.998;2022-10-16T15:48:39;16.33;;;3.63;;
54384;SDS011;40284;52.878;5.998;2022-10-16T15:51:06;16.25;;;4.07;;
54384;SDS011;40284;52.878;5.998;2022-10-16T15:53:32;18.17;;;3.15;;
54384;SDS011;40284;52.878;5.998;2022-10-16T15:56:02;13.65;;;3.60;;
54384;SDS011;40284;52.878;5.998;2022-10-16T15:58:29;11.18;;;3.17;;
54384;SDS011;40284;52.878;5.998;2022-10-16T16:00:58;12.98;;;3.83;;
54384;SDS011;40284;52.878;5.998;2022-10-16T16:03:28;10.00;;;3.75;;
54384;SDS011;40284;52.878;5.998;2022-10-16T16:05:55;13.57;;;3.90;;
54384;SDS011;40284;52.878;5.998;2022-10-16T16:08:24;14.00;;;3.42;;
54384;SDS011;40284;52.878;5.998;2022-10-16T16:13:28;12.02;;;2.80;;
54384;SDS011;40284;52.878;5.998;2022-10-16T16:15:54;14.02;;;2.85;;
54384;SDS011;40284;52.878;5.998;2022-10-16T16:18:21;14.52;;;3.88;;
54384;SDS011;40284;52.878;5.998;2022-10-16T16:20:49;17.73;;;3.45;;
54384;SDS011;40284;52.878;5.998;2022-10-16T16:23:15;15.60;;;3.83;;
54384;SDS011;40284;52.878;5.998;2022-10-16T16:25:41;10.13;;;2.40;;
54384;SDS011;40284;52.878;5.998;2022-10-16T16:28:08;11.68;;;3.33;;
54384;SDS011;40284;52.878;5.998;2022-10-16T16:30:36;15.18;;;3.10;;
54384;SDS011;40284;52.878;5.998;2022-10-16T16:33:02;12.88;;;3.20;;
54384;SDS011;40284;52.878;5.998;2022-10-16T16:35:28;10.70;;;2.60;;
54384;SDS011;40284;52.878;5.998;2022-10-16T16:37:54;14.00;;;3.60;;
54384;SDS011;40284;52.878;5.998;2022-10-16T16:40:21;10.38;;;2.85;;